Time;durP1;ratioP1;P1;durP2;ratioP2;P2;SDS_P1;SDS_P2;PMS_P1;PMS_P2;Temp;Humidity;BMP_temperature;BMP_pressure;BME280_temperature;BME280_humidity;BME280_pressure;Samples;Min_cycle;Max_cycle;Signal;HPM_P1;HPM_P2
2021/09/25 10:42:52;;;;;;;19.25;12.55;;;19.20;99.90;;;;;;12006220;28;20496;-66
2021/09/25 10:48:47;;;;;;;17.88;11.52;;;19.70;99.90;;;;;;12002181;28;20402;-66
2021/09/25 10:54:34;;;;;;;17.70;9.38;;;19.90;99.90;;;;;;11958527;28;20493;-66
2021/09/25 11:00:24;;;;;;;13.93;10.10;;;20.10;99.90;;;;;;11988112;28;20056;-66
2021/09/25 11:06:12;;;;;;;15.63;10.10;;;20.30;99.90;;;;;;12005516;28;20041;-66
2021/09/25 11:12:05;;;;;;;16.52;8.75;;;20.50;99.90;;;;;;12005062;28;20136;-68
2021/09/25 11:18:26;;;;;;;12.15;7.65;;;20.70;99.90;;;;;;11985453;28;20041;-68
2021/09/25 11:24:20;;;;;;;10.88;8.27;;;20.80;99.90;;;;;;11995961;28;20536;-66
2021/09/25 11:30:15;;;;;;;9.85;7.82;;;21.00;99.90;;;;;;11995707;28;20421;-66
2021/09/25 11:36:08;;;;;;;11.32;8.02;;;21.10;99.90;;;;;;11958293;28;20061;-66
2021/09/25 11:42:11;;;;;;;10.38;8.13;;;21.30;99.90;;;;;;11965369;28;20041;-66
2021/09/25 11:47:58;;;;;;;11.37;7.93;;;21.40;99.90;;;;;;11945495;28;20042;-66
2021/09/25 11:53:48;;;;;;;10.93;7.50;;;21.50;99.90;;;;;;11915419;28;20050;-66
2021/09/25 11:59:36;;;;;;;14.88;7.97;;;21.60;99.90;;;;;;11922852;28;20057;-66
2021/09/25 12:05:37;;;;;;;12.45;7.93;;;21.60;99.90;;;;;;11907339;28;20060;-66
2021/09/25 12:11:28;;;;;;;14.60;10.13;;;21.80;99.90;;;;;;11926602;28;20064;-66
2021/09/25 12:17:15;;;;;;;11.27;7.88;;;22.00;99.90;;;;;;11928767;28;20508;-66
2021/09/25 12:23:18;;;;;;;10.25;7.00;;;22.20;99.90;;;;;;11915696;28;20514;-66
2021/09/25 12:29:15;;;;;;;12.67;6.93;;;22.40;99.90;;;;;;11922159;28;20045;-66
2021/09/25 12:35:01;;;;;;;11.02;6.65;;;22.50;99.90;;;;;;11940177;28;20041;-65
2021/09/25 12:40:51;;;;;;;12.18;6.45;;;22.70;99.90;;;;;;11905190;28;27173;-69
2021/09/25 12:46:57;;;;;;;17.77;12.38;;;22.70;99.90;;;;;;11936057;28;20045;-67
2021/09/25 12:52:45;;;;;;;10.23;7.55;;;22.80;99.90;;;;;;11960589;28;20052;-67
2021/09/25 12:58:34;;;;;;;11.57;7.63;;;22.90;99.90;;;;;;11946223;28;20080;-67
2021/09/25 13:04:25;;;;;;;12.70;7.18;;;23.40;99.90;;;;;;11946006;28;20046;-69
2021/09/25 13:10:21;;;;;;;10.63;6.30;;;23.80;99.90;;;;;;11957796;28;20041;-68
2021/09/25 13:16:11;;;;;;;6.03;4.90;;;24.10;99.90;;;;;;11933305;28;20790;-67
2021/09/25 13:22:01;;;;;;;8.35;5.53;;;24.40;99.90;;;;;;11931371;28;20524;-68
2021/09/25 13:27:49;;;;;;;8.15;6.00;;;24.60;99.30;;;;;;11945442;28;20041;-67
2021/09/25 13:33:36;;;;;;;7.03;5.90;;;24.90;98.80;;;;;;11969586;28;20040;-68
2021/09/25 13:39:24;;;;;;;9.40;5.60;;;24.80;97.60;;;;;;11934705;28;20544;-68
2021/09/25 13:45:13;;;;;;;9.80;5.68;;;24.40;97.50;;;;;;11933025;28;20045;-67
2021/09/25 13:51:00;;;;;;;8.10;5.80;;;24.30;98.50;;;;;;11929826;28;20504;-68
2021/09/25 13:56:48;;;;;;;7.22;5.55;;;24.20;98.30;;;;;;11911985;28;20037;-67
2021/09/25 14:02:35;;;;;;;6.82;5.10;;;24.00;98.40;;;;;;11931716;28;20049;-67
2021/09/25 14:08:22;;;;;;;6.95;5.28;;;23.90;99.40;;;;;;11932151;28;20057;-67
2021/09/25 14:14:10;;;;;;;5.93;4.85;;;23.70;99.60;;;;;;11931774;28;20050;-68
2021/09/25 14:19:57;;;;;;;7.07;4.70;;;23.60;99.40;;;;;;11935978;28;20520;-67
2021/09/25 14:25:44;;;;;;;8.82;5.10;;;23.40;99.20;;;;;;11940862;28;20088;-68
2021/09/25 14:31:33;;;;;;;6.45;5.53;;;23.20;99.90;;;;;;11956897;28;20049;-67
2021/09/25 14:37:20;;;;;;;6.10;5.38;;;23.10;99.90;;;;;;11940905;28;20108;-67
2021/09/25 14:43:07;;;;;;;8.88;5.95;;;23.10;99.90;;;;;;11967025;28;20056;-67
2021/09/25 14:48:55;;;;;;;11.57;6.47;;;23.00;99.90;;;;;;11964628;28;20052;-67
2021/09/25 14:54:42;;;;;;;7.60;6.18;;;23.00;99.90;;;;;;11966941;28;20041;-67
2021/09/25 15:00:30;;;;;;;8.65;5.85;;;23.00;99.90;;;;;;11965811;28;20041;-67
2021/09/25 15:06:18;;;;;;;9.75;6.25;;;23.10;99.90;;;;;;11962141;28;20052;-68
2021/09/25 15:12:13;;;;;;;8.25;6.65;;;23.10;99.90;;;;;;11920786;28;20124;-67
2021/09/25 15:18:00;;;;;;;8.38;6.50;;;23.10;99.90;;;;;;11966707;28;20050;-68
2021/09/25 15:23:48;;;;;;;7.07;6.38;;;22.90;99.90;;;;;;11968586;28;20053;-67
2021/09/25 15:29:35;;;;;;;10.07;6.63;;;22.90;99.90;;;;;;11974109;28;20053;-67
2021/09/25 15:35:22;;;;;;;8.77;6.32;;;22.80;99.90;;;;;;11941617;28;20059;-68
2021/09/25 15:41:10;;;;;;;8.23;6.68;;;22.70;99.90;;;;;;11916354;28;20042;-67
2021/09/25 15:46:57;;;;;;;9.43;7.43;;;22.50;99.90;;;;;;11929498;28;20041;-67
2021/09/25 15:52:44;;;;;;;8.52;7.15;;;22.30;99.90;;;;;;11934702;28;20046;-67
2021/09/25 15:58:32;;;;;;;11.52;7.07;;;22.20;99.90;;;;;;11934831;28;20521;-67
2021/09/25 16:04:23;;;;;;;14.02;7.82;;;22.20;99.90;;;;;;11937340;28;20529;-67
2021/09/25 16:10:11;;;;;;;9.32;7.72;;;22.20;99.90;;;;;;11936250;28;20054;-67
2021/09/25 16:15:59;;;;;;;9.55;7.53;;;22.10;99.90;;;;;;11931775;28;20259;-67
2021/09/25 16:21:46;;;;;;;13.88;7.72;;;22.00;99.90;;;;;;11933253;28;20053;-67
2021/09/25 16:27:33;;;;;;;11.20;7.25;;;21.90;99.90;;;;;;11935441;28;20049;-67
2021/09/25 16:33:22;;;;;;;10.55;7.22;;;21.80;99.90;;;;;;11937793;28;20421;-67
2021/09/25 16:39:10;;;;;;;10.77;7.45;;;21.60;99.90;;;;;;11935047;28;20456;-67
2021/09/25 16:44:57;;;;;;;9.77;7.28;;;21.60;99.90;;;;;;11913942;28;20533;-67
2021/09/25 16:50:45;;;;;;;9.85;7.40;;;21.30;99.90;;;;;;11950367;28;20179;-67
2021/09/25 16:56:32;;;;;;;10.25;6.88;;;21.40;99.90;;;;;;11971059;28;20044;-68
2021/09/25 17:02:19;;;;;;;15.40;7.72;;;21.30;99.90;;;;;;11949016;28;20045;-69
2021/09/25 17:08:09;;;;;;;10.75;7.43;;;21.20;99.90;;;;;;11965662;28;20406;-69
2021/09/25 17:13:56;;;;;;;11.82;7.80;;;21.20;99.90;;;;;;11953248;28;20478;-69
2021/09/25 17:19:43;;;;;;;10.02;7.18;;;21.10;99.90;;;;;;11960979;28;20057;-68
2021/09/25 17:25:32;;;;;;;9.38;7.68;;;21.10;99.90;;;;;;11969478;28;20091;-68
2021/09/25 17:31:19;;;;;;;14.63;8.23;;;21.00;99.90;;;;;;11969074;28;20051;-68
2021/09/25 17:37:06;;;;;;;11.02;8.02;;;21.00;99.90;;;;;;11946503;28;20048;-68
2021/09/25 17:42:54;;;;;;;12.95;8.65;;;20.90;99.90;;;;;;11901953;28;20061;-68
